METAR AND TAF INFORMATION
METAR FOR EGLL
EGLL 270650Z AUTO VRB02KT 9999 NCD 03/01 Q1021 NOSIG
EGLL 270620Z AUTO VRB02KT 9999 NCD 03/02 Q1021 NOSIG
EGLL 270550Z AUTO VRB02KT 9999 BKN028 02/01 Q1021 NOSIG
EGLL 270520Z AUTO 32003KT 280V360 9999 OVC028 03/02 Q1022 NOSIG
EGLL 270450Z AUTO 31004KT 9999 BKN028 03/02 Q1021 NOSIG
EGLL 270420Z AUTO VRB02KT 9999 BKN028 03/01 Q1021 NOSIG
EGLL 270350Z AUTO 34003KT 290V030 9999 FEW030 02/01 Q1021 NOSIG

TAF EGLL 270453Z 2706/2812 34005KT 9999 FEW030
PROB30 2706/2709 2000 BR MIFG
PROB30
TEMPO 2706/2709 BKN003
BECMG 2712/2715 26010KT
BECMG 2719/2722 20005KT FEW006 BKN010
TEMPO 2719/2722 8000 -RA
PROB30
TEMPO 2800/2803 BKN004
PROB30 2803/2808 2000 BR MIFG
PROB30
TEMPO 2808/2811 BKN004

 AIRPORT MAP

 RUNWAY INFORMATION
Runway 09L Runway length 12799 ft Runway width 164 ft
Runway elevation 79 ft Runway displaced threshold 1007 ft Runway heading 90
Runway 27R Runway length 12799 ft Runway width 164 ft
Runway elevation 78 ft Runway displaced threshold 0 ft Runway heading 270
Runway 09R Runway length 12001 ft Runway width 148 ft
Runway elevation 75 ft Runway displaced threshold 1013 ft Runway heading 90
Runway 27L Runway length 12001 ft Runway width 148 ft
Runway elevation 77 ft Runway displaced threshold 0 ft Runway heading 270

 AIRPORT FREQUENCIES
Type APP Name APP Frequency 119.725 MHZ
Type ATIS Name ATIS Frequency 128.075 MHZ
Type CLD Name CLNC DEL Frequency 121.975 MHZ
Type GND Name GND Frequency 121.7 MHZ
Type TWR Name TWR Frequency 118.475 MHZ

 AIRPORT NEAR NAVIGATION AIDS
Type VOR-DME Name London Frequency 113600 KHZ

-